createdAt,value
2022-12-15T00:02:05.100Z,-4.90
2022-12-15T00:04:50.164Z,-4.90
2022-12-15T00:07:34.958Z,-4.89
2022-12-15T00:10:19.751Z,-4.88
2022-12-15T00:13:04.445Z,-4.88
2022-12-15T00:15:49.101Z,-4.89
2022-12-15T00:18:34.036Z,-4.90
2022-12-15T00:21:19.287Z,-4.93
2022-12-15T00:24:04.193Z,-4.95
2022-12-15T00:26:49.389Z,-4.97
2022-12-15T00:29:34.776Z,-4.99
2022-12-15T00:32:19.619Z,-5.01
2022-12-15T00:35:04.534Z,-5.02
2022-12-15T00:37:49.455Z,-5.04
2022-12-15T00:40:16.027Z,-5.04
2022-12-15T00:42:42.476Z,-5.06
2022-12-15T00:45:09.293Z,-5.08
2022-12-15T00:47:36.488Z,-5.09
2022-12-15T00:50:22.246Z,-5.11
2022-12-15T00:53:07.057Z,-5.12
2022-12-15T00:55:51.776Z,-5.14
2022-12-15T00:58:36.658Z,-5.17
2022-12-15T01:01:26.738Z,-5.16
2022-12-15T01:04:12.031Z,-5.19
2022-12-15T01:06:57.069Z,-5.20
2022-12-15T01:09:42.379Z,-5.21
2022-12-15T01:12:27.231Z,-5.22
2022-12-15T01:15:11.971Z,-5.22
2022-12-15T01:17:56.888Z,-5.22
2022-12-15T01:20:23.334Z,-5.25
2022-12-15T01:22:53.035Z,-5.25
2022-12-15T01:25:22.094Z,-5.27
2022-12-15T01:27:49.365Z,-5.28
2022-12-15T01:30:18.912Z,-5.29
2022-12-15T01:32:46.311Z,-5.31
2022-12-15T01:35:13.410Z,-5.32
2022-12-15T01:37:40.018Z,-5.33
2022-12-15T01:40:27.770Z,-5.34
2022-12-15T01:42:54.178Z,-5.33
2022-12-15T01:45:45.022Z,-5.33
2022-12-15T01:48:14.995Z,-5.34
2022-12-15T01:50:46.859Z,-5.35
2022-12-15T01:53:14.192Z,-5.36
2022-12-15T01:55:44.217Z,-5.37
2022-12-15T01:58:16.784Z,-5.36
2022-12-15T02:00:43.611Z,-5.38
2022-12-15T02:03:11.968Z,-5.38
2022-12-15T02:05:41.285Z,-5.39
2022-12-15T02:08:09.492Z,-5.39
2022-12-15T02:10:56.379Z,-5.39
2022-12-15T02:13:39.419Z,-5.39
2022-12-15T02:16:20.685Z,-5.41
2022-12-15T02:19:26.005Z,-5.40
2022-12-15T02:22:07.568Z,-5.41
2022-12-15T02:25:06.497Z,-5.44
2022-12-15T02:27:51.664Z,-5.45
2022-12-15T02:30:35.748Z,-5.46
2022-12-15T02:33:11.531Z,-5.46
2022-12-15T02:35:56.421Z,-5.48
2022-12-15T02:38:38.439Z,-5.49
2022-12-15T02:41:26.589Z,-5.50
2022-12-15T02:43:52.991Z,-5.50
2022-12-15T02:46:27.903Z,-5.52
2022-12-15T02:49:18.358Z,-5.53
2022-12-15T02:51:59.782Z,-5.55
2022-12-15T02:54:29.126Z,-5.54
2022-12-15T02:57:38.103Z,-5.55
2022-12-15T03:00:10.566Z,-5.56
2022-12-15T03:02:41.860Z,-5.57
2022-12-15T03:05:09.317Z,-5.57
2022-12-15T03:07:35.756Z,-5.55
2022-12-15T03:10:05.123Z,-5.56
2022-12-15T03:12:31.716Z,-5.56
2022-12-15T03:14:58.138Z,-5.57
2022-12-15T03:17:24.758Z,-5.56
2022-12-15T03:19:51.219Z,-5.58
2022-12-15T03:22:17.679Z,-5.60
2022-12-15T03:24:44.037Z,-5.60
2022-12-15T03:27:10.642Z,-5.60
2022-12-15T03:29:37.041Z,-5.59
2022-12-15T03:32:03.669Z,-5.58
2022-12-15T03:34:30.171Z,-5.60
2022-12-15T03:36:56.781Z,-5.61
2022-12-15T03:39:23.247Z,-5.62
2022-12-15T03:41:49.806Z,-5.64
2022-12-15T03:44:16.359Z,-5.65
2022-12-15T03:46:42.719Z,-5.66
2022-12-15T03:49:09.167Z,-5.65
2022-12-15T03:51:35.582Z,-5.66
2022-12-15T03:54:01.921Z,-5.67
2022-12-15T03:56:28.379Z,-5.67
2022-12-15T03:58:54.779Z,-5.69
2022-12-15T04:01:21.296Z,-5.70
2022-12-15T04:03:47.906Z,-5.70
2022-12-15T04:06:14.303Z,-5.69
2022-12-15T04:08:40.722Z,-5.70
2022-12-15T04:11:07.099Z,-5.70
2022-12-15T04:13:33.972Z,-5.72
2022-12-15T04:16:04.466Z,-5.73
2022-12-15T04:18:30.851Z,-5.74
2022-12-15T04:20:57.594Z,-5.74
2022-12-15T04:23:24.350Z,-5.74
2022-12-15T04:26:09.384Z,-5.74
2022-12-15T04:28:55.393Z,-5.75
2022-12-15T04:31:47.138Z,-5.75
2022-12-15T04:34:36.579Z,-5.72
2022-12-15T04:37:21.412Z,-5.73
2022-12-15T04:40:08.654Z,-5.73
2022-12-15T04:42:56.058Z,-5.73
2022-12-15T04:45:43.519Z,-5.71
2022-12-15T04:48:28.875Z,-5.67
2022-12-15T04:51:14.391Z,-5.64
2022-12-15T04:54:02.128Z,-5.60
2022-12-15T04:56:47.468Z,-5.62
2022-12-15T04:59:35.289Z,-5.63
2022-12-15T05:02:20.321Z,-5.63
2022-12-15T05:05:05.564Z,-5.65
2022-12-15T05:07:50.347Z,-5.67
2022-12-15T05:10:35.666Z,-5.69
2022-12-15T05:13:25.205Z,-5.68
2022-12-15T05:16:10.271Z,-5.66
2022-12-15T05:18:55.441Z,-5.67
2022-12-15T05:21:40.255Z,-5.69
2022-12-15T05:24:25.690Z,-5.67
2022-12-15T05:27:11.052Z,-5.67
2022-12-15T05:29:55.661Z,-5.68
2022-12-15T05:32:22.073Z,-5.69
2022-12-15T05:34:48.500Z,-5.68
2022-12-15T05:37:15.147Z,-5.67
2022-12-15T05:39:42.166Z,-5.68
2022-12-15T05:42:08.613Z,-5.67
2022-12-15T05:44:35.005Z,-5.69
2022-12-15T05:47:01.395Z,-5.70
2022-12-15T05:49:27.840Z,-5.72
2022-12-15T05:51:54.416Z,-5.74
2022-12-15T05:54:20.956Z,-5.78
2022-12-15T05:56:50.507Z,-5.78
2022-12-15T05:59:17.772Z,-5.78
2022-12-15T06:01:44.268Z,-5.78
2022-12-15T06:04:12.741Z,-5.79
2022-12-15T06:06:39.967Z,-5.77
2022-12-15T06:09:08.463Z,-5.77
2022-12-15T06:11:34.947Z,-5.75
2022-12-15T06:14:01.345Z,-5.75
2022-12-15T06:16:30.398Z,-5.75
2022-12-15T06:19:00.343Z,-5.75
2022-12-15T06:21:30.216Z,-5.76
2022-12-15T06:23:57.228Z,-5.76
2022-12-15T06:26:33.847Z,-5.78
2022-12-15T06:29:04.573Z,-5.79
2022-12-15T06:31:32.600Z,-5.81
2022-12-15T06:34:02.418Z,-5.81
2022-12-15T06:36:30.629Z,-5.82
2022-12-15T06:39:02.126Z,-5.80
2022-12-15T06:41:32.197Z,-5.80
2022-12-15T06:43:59.923Z,-5.80
2022-12-15T06:46:28.652Z,-5.81
2022-12-15T06:48:55.399Z,-5.80
2022-12-15T06:51:21.874Z,-5.79
2022-12-15T06:53:54.040Z,-5.79
2022-12-15T06:56:34.376Z,-5.79
2022-12-15T06:59:03.468Z,-5.80
2022-12-15T07:01:30.827Z,-5.81
2022-12-15T07:03:59.955Z,-5.81
2022-12-15T07:06:27.447Z,-5.80
2022-12-15T07:08:56.470Z,-5.81
2022-12-15T07:11:23.706Z,-5.80
2022-12-15T07:13:51.507Z,-5.81
2022-12-15T07:16:18.089Z,-5.83
2022-12-15T07:18:44.579Z,-5.83
2022-12-15T07:21:11.573Z,-5.81
2022-12-15T07:23:55.899Z,-5.82
2022-12-15T07:26:24.146Z,-5.81
2022-12-15T07:28:50.782Z,-5.80
2022-12-15T07:31:17.685Z,-5.78
2022-12-15T07:33:44.360Z,-5.76
2022-12-15T07:36:11.007Z,-5.75
2022-12-15T07:38:37.617Z,-5.74
2022-12-15T07:41:05.938Z,-5.74
2022-12-15T07:43:32.935Z,-5.74
2022-12-15T07:46:00.293Z,-5.74
2022-12-15T07:48:27.378Z,-5.75
2022-12-15T07:51:02.775Z,-5.76
2022-12-15T07:53:34.224Z,-5.74
2022-12-15T07:56:09.670Z,-5.71
2022-12-15T07:58:37.868Z,-5.69
2022-12-15T08:01:12.337Z,-5.66
2022-12-15T08:03:40.013Z,-5.64
2022-12-15T08:06:10.003Z,-5.63
2022-12-15T08:08:37.042Z,-5.61
2022-12-15T08:11:08.233Z,-5.59
2022-12-15T08:16:21.909Z,-5.52
2022-12-15T08:18:48.904Z,-5.51
2022-12-15T08:21:15.550Z,-5.47
2022-12-15T08:23:42.079Z,-5.42
2022-12-15T08:26:11.824Z,-5.38
2022-12-15T08:28:39.746Z,-5.34
2022-12-15T08:31:08.786Z,-5.29
2022-12-15T08:33:36.090Z,-5.25
2022-12-15T08:36:05.962Z,-5.21
2022-12-15T08:38:33.359Z,-5.15
2022-12-15T08:41:10.818Z,-5.10
2022-12-15T08:43:42.585Z,-5.06
2022-12-15T08:46:12.899Z,-5.02
2022-12-15T08:48:39.978Z,-4.94
2022-12-15T08:51:06.869Z,-4.86
2022-12-15T08:53:33.396Z,-4.79
2022-12-15T08:56:08.822Z,-4.70
2022-12-15T08:58:35.333Z,-4.63
2022-12-15T09:01:04.283Z,-4.56
2022-12-15T09:03:31.096Z,-4.49
2022-12-15T09:06:05.481Z,-4.43
2022-12-15T09:08:32.794Z,-4.36
2022-12-15T09:11:00.154Z,-4.26
2022-12-15T09:13:27.247Z,-4.17
2022-12-15T09:16:13.146Z,-4.07
2022-12-15T09:18:42.472Z,-4.00
2022-12-15T09:21:09.401Z,-3.92
2022-12-15T09:23:36.823Z,-3.85
2022-12-15T09:26:14.196Z,-3.78
2022-12-15T09:28:41.390Z,-3.71
2022-12-15T09:31:14.236Z,-3.65
2022-12-15T09:33:41.872Z,-3.56
2022-12-15T09:36:09.220Z,-3.47
2022-12-15T09:38:40.987Z,-3.39
2022-12-15T09:41:13.539Z,-3.32
2022-12-15T09:43:50.628Z,-3.26
2022-12-15T09:46:42.301Z,-3.17
2022-12-15T09:49:21.569Z,-3.06
2022-12-15T09:52:01.047Z,-3.00
2022-12-15T09:54:33.862Z,-2.97
2022-12-15T09:57:08.256Z,-2.94
2022-12-15T09:59:57.865Z,-2.89
2022-12-15T10:02:33.457Z,-2.85
2022-12-15T10:05:21.671Z,-2.78
2022-12-15T10:07:50.571Z,-2.69
2022-12-15T10:10:29.868Z,-2.54
2022-12-15T10:16:00.759Z,-2.32
2022-12-15T10:18:35.229Z,-2.25
2022-12-15T10:21:02.362Z,-2.16
2022-12-15T10:23:29.389Z,-2.13
2022-12-15T10:26:19.216Z,-2.06
2022-12-15T10:29:11.666Z,-1.98
2022-12-15T10:31:54.702Z,-1.89
2022-12-15T10:34:25.792Z,-1.78
2022-12-15T10:36:53.597Z,-1.68
2022-12-15T10:39:21.131Z,-1.47
2022-12-15T10:42:21.296Z,-1.13
2022-12-15T10:44:51.539Z,-0.84
2022-12-15T10:47:20.612Z,-0.70
2022-12-15T10:49:48.537Z,-0.75
2022-12-15T10:52:28.224Z,-0.83
2022-12-15T10:54:55.904Z,-0.89
2022-12-15T10:57:28.116Z,-0.94
2022-12-15T11:00:00.581Z,-1.05
2022-12-15T11:02:33.541Z,-1.11
2022-12-15T11:05:15.474Z,-1.16
2022-12-15T11:07:49.281Z,-1.14
2022-12-15T11:10:24.825Z,-1.10
2022-12-15T11:13:00.447Z,-1.10
2022-12-15T11:15:38.842Z,-1.07
2022-12-15T11:18:12.861Z,-1.08
2022-12-15T11:20:54.802Z,-1.12
2022-12-15T11:23:37.941Z,-1.09
2022-12-15T11:26:22.558Z,-1.06
2022-12-15T11:28:56.361Z,-1.03
2022-12-15T11:31:36.994Z,-0.95
2022-12-15T11:34:11.060Z,-0.91
2022-12-15T11:37:24.005Z,-0.85
2022-12-15T11:39:56.403Z,-0.76
2022-12-15T11:42:47.921Z,-0.74
2022-12-15T11:45:30.467Z,-0.71
2022-12-15T11:48:14.980Z,-0.62
2022-12-15T11:50:57.193Z,-0.51
2022-12-15T11:53:32.764Z,-0.44
2022-12-15T11:56:15.853Z,-0.42
2022-12-15T11:59:20.914Z,-0.39
2022-12-15T12:02:13.252Z,-0.41
2022-12-15T12:05:15.415Z,-0.43
2022-12-15T12:08:06.990Z,-0.44
2022-12-15T12:11:02.523Z,-0.44
2022-12-15T12:13:42.883Z,-0.39
2022-12-15T12:16:27.857Z,-0.39
2022-12-15T12:19:01.005Z,-0.40
2022-12-15T12:21:35.815Z,-0.38
2022-12-15T12:24:23.993Z,-0.33
2022-12-15T12:27:02.735Z,-0.25
2022-12-15T12:29:43.116Z,-0.19
2022-12-15T12:32:21.413Z,-0.14
2022-12-15T12:34:47.914Z,-0.12
2022-12-15T12:37:35.740Z,-0.10
2022-12-15T12:40:16.673Z,-0.03
2022-12-15T12:42:53.314Z,0.02
2022-12-15T12:45:24.136Z,0.05
2022-12-15T12:47:54.333Z,0.04
2022-12-15T12:50:23.900Z,0.02
2022-12-15T12:52:55.038Z,0.04
2022-12-15T12:55:26.207Z,0.06
2022-12-15T12:57:54.322Z,0.12
2022-12-15T13:00:27.163Z,0.20
2022-12-15T13:03:10.365Z,0.21
2022-12-15T13:05:38.552Z,0.20
2022-12-15T13:08:08.190Z,0.16
2022-12-15T13:10:43.153Z,0.14
2022-12-15T13:13:18.716Z,0.12
2022-12-15T13:18:57.188Z,0.12
2022-12-15T13:21:51.216Z,0.11
2022-12-15T13:24:41.677Z,0.12
2022-12-15T13:27:17.316Z,0.10
2022-12-15T13:30:08.107Z,0.12
2022-12-15T13:32:57.778Z,0.13
2022-12-15T13:35:31.424Z,0.13
2022-12-15T13:38:03.085Z,0.10
2022-12-15T13:40:35.654Z,0.08
2022-12-15T13:43:05.131Z,0.07
2022-12-15T13:45:36.663Z,0.04
2022-12-15T13:48:32.475Z,0.04
2022-12-15T13:51:21.822Z,-0.02
2022-12-15T13:53:56.122Z,-0.08
2022-12-15T13:56:50.860Z,-0.08
2022-12-15T13:59:39.748Z,-0.06
2022-12-15T14:02:31.037Z,-0.07
2022-12-15T14:05:13.171Z,-0.07
2022-12-15T14:07:54.377Z,-0.01
2022-12-15T14:10:27.626Z,-0.02
2022-12-15T14:12:57.684Z,-0.03
2022-12-15T14:15:31.870Z,-0.06
2022-12-15T14:18:01.653Z,-0.09
2022-12-15T14:20:32.361Z,-0.10
2022-12-15T14:22:59.031Z,-0.13
2022-12-15T14:25:29.416Z,-0.12
2022-12-15T14:27:56.887Z,-0.15
2022-12-15T14:30:33.128Z,-0.15
2022-12-15T14:33:07.032Z,-0.16
2022-12-15T14:35:42.205Z,-0.19
2022-12-15T14:38:17.542Z,-0.22
2022-12-15T14:40:49.193Z,-0.25
2022-12-15T14:43:24.817Z,-0.27
2022-12-15T14:45:56.674Z,-0.30
2022-12-15T14:48:41.092Z,-0.35
2022-12-15T14:51:12.423Z,-0.40
2022-12-15T14:53:41.803Z,-0.40
2022-12-15T14:56:30.099Z,-0.42
2022-12-15T14:59:18.851Z,-0.45
2022-12-15T15:02:10.992Z,-0.45
2022-12-15T15:03:10.904Z,-2.42
2022-12-15T15:03:16.375Z,0.11
2022-12-15T15:04:37.557Z,-0.49
2022-12-15T15:07:17.606Z,-0.50
2022-12-15T15:09:46.196Z,-0.55
2022-12-15T15:12:21.840Z,-0.57
2022-12-15T15:14:51.512Z,-0.60
2022-12-15T15:17:25.666Z,-0.61
2022-12-15T15:19:57.354Z,-0.63
2022-12-15T15:22:41.012Z,-0.67
2022-12-15T15:25:45.189Z,-0.72
2022-12-15T15:28:13.675Z,-0.77
2022-12-15T15:30:43.408Z,-0.80
2022-12-15T15:33:10.677Z,-0.83
2022-12-15T15:35:37.467Z,-0.88
2022-12-15T15:38:23.157Z,-0.93
2022-12-15T15:41:01.244Z,-0.96
2022-12-15T15:43:28.825Z,-0.98
2022-12-15T15:46:01.703Z,-0.98
2022-12-15T15:48:47.850Z,-1.00
2022-12-15T15:51:15.898Z,-1.04
2022-12-15T15:53:42.650Z,-1.05
2022-12-15T15:56:15.451Z,-1.07
2022-12-15T15:58:46.596Z,-1.10
2022-12-15T16:01:13.904Z,-1.12
2022-12-15T16:03:41.416Z,-1.14
2022-12-15T16:06:16.815Z,-1.12
2022-12-15T16:08:44.017Z,-1.13
2022-12-15T16:11:12.235Z,-1.10
2022-12-15T16:13:39.236Z,-1.10
2022-12-15T16:16:06.688Z,-1.11
2022-12-15T16:18:33.630Z,-1.11
2022-12-15T16:21:00.472Z,-1.12
2022-12-15T16:23:29.264Z,-1.13
2022-12-15T16:26:00.335Z,-1.15
2022-12-15T16:28:29.516Z,-1.18
2022-12-15T16:30:58.748Z,-1.20
2022-12-15T16:33:25.589Z,-1.21
2022-12-15T16:35:52.194Z,-1.22
2022-12-15T16:38:25.620Z,-1.27
2022-12-15T16:40:53.011Z,-1.28
2022-12-15T16:43:24.061Z,-1.30
2022-12-15T16:45:53.847Z,-1.29
2022-12-15T16:48:20.912Z,-1.28
2022-12-15T16:50:52.201Z,-1.27
2022-12-15T16:53:30.501Z,-1.27
2022-12-15T16:55:59.139Z,-1.22
2022-12-15T16:58:27.059Z,-1.18
2022-12-15T17:00:53.898Z,-1.16
2022-12-15T17:03:26.688Z,-1.17
2022-12-15T17:05:56.028Z,-1.20
2022-12-15T17:08:54.172Z,-1.22
2022-12-15T17:11:24.290Z,-1.28
2022-12-15T17:13:53.645Z,-1.30
2022-12-15T17:16:22.431Z,-1.31
2022-12-15T17:18:49.934Z,-1.32
2022-12-15T17:21:47.494Z,-1.31
2022-12-15T17:24:17.845Z,-1.31
2022-12-15T17:26:44.599Z,-1.32
2022-12-15T17:29:18.030Z,-1.32
2022-12-15T17:31:44.513Z,-1.34
2022-12-15T17:34:27.587Z,-1.37
2022-12-15T17:36:55.247Z,-1.40
2022-12-15T17:39:22.789Z,-1.41
2022-12-15T17:41:59.762Z,-1.44
2022-12-15T17:44:36.184Z,-1.46
2022-12-15T17:47:05.687Z,-1.47
2022-12-15T17:49:36.245Z,-1.43
2022-12-15T17:52:07.122Z,-1.39
2022-12-15T17:54:33.685Z,-1.38
2022-12-15T17:57:00.224Z,-1.37
2022-12-15T17:59:26.674Z,-1.36
2022-12-15T18:01:56.753Z,-1.36
2022-12-15T18:04:23.278Z,-1.38
2022-12-15T18:06:49.714Z,-1.40
2022-12-15T18:09:17.848Z,-1.38
2022-12-15T18:11:46.701Z,-1.33
2022-12-15T18:14:15.987Z,-1.30
2022-12-15T18:16:43.201Z,-1.30
2022-12-15T18:19:09.646Z,-1.27
2022-12-15T18:21:36.865Z,-1.23
2022-12-15T18:24:03.967Z,-1.21
2022-12-15T18:26:37.659Z,-1.23
2022-12-15T18:29:12.785Z,-1.25
2022-12-15T18:31:39.563Z,-1.28
2022-12-15T18:34:15.437Z,-1.30
2022-12-15T18:36:41.934Z,-1.35
2022-12-15T18:39:18.098Z,-1.36
2022-12-15T18:41:44.698Z,-1.35
2022-12-15T18:44:20.920Z,-1.39
2022-12-15T18:46:48.260Z,-1.42
2022-12-15T18:49:14.946Z,-1.42
2022-12-15T18:51:41.358Z,-1.46
2022-12-15T18:54:16.599Z,-1.48
2022-12-15T18:56:43.001Z,-1.49
2022-12-15T18:59:17.284Z,-1.49
2022-12-15T19:01:47.368Z,-1.51
2022-12-15T19:04:14.879Z,-1.54
2022-12-15T19:06:41.932Z,-1.56
2022-12-15T19:09:17.066Z,-1.55
2022-12-15T19:12:15.981Z,-1.53
2022-12-15T19:14:43.246Z,-1.48
2022-12-15T19:17:38.102Z,-1.41
2022-12-15T19:20:35.551Z,-1.34
2022-12-15T19:23:03.596Z,-1.32
2022-12-15T19:25:31.594Z,-1.30
2022-12-15T19:27:59.968Z,-1.31
2022-12-15T19:30:38.495Z,-1.32
2022-12-15T19:33:08.622Z,-1.35
2022-12-15T19:35:37.106Z,-1.36
2022-12-15T19:38:04.687Z,-1.38
2022-12-15T19:40:32.955Z,-1.41
2022-12-15T19:43:00.990Z,-1.42
2022-12-15T19:45:31.676Z,-1.44
2022-12-15T19:48:00.057Z,-1.46
2022-12-15T19:50:36.392Z,-1.45
2022-12-15T19:53:10.031Z,-1.44
2022-12-15T19:55:38.724Z,-1.41
2022-12-15T19:58:31.164Z,-1.35
2022-12-15T20:01:01.423Z,-1.31
2022-12-15T20:03:29.888Z,-1.28
2022-12-15T20:06:01.092Z,-1.26
2022-12-15T20:08:32.901Z,-1.20
2022-12-15T20:10:59.753Z,-1.18
2022-12-15T20:13:26.631Z,-1.15
2022-12-15T20:15:55.087Z,-1.14
2022-12-15T20:18:21.622Z,-1.12
2022-12-15T20:20:49.339Z,-1.09
2022-12-15T20:23:18.477Z,-1.09
2022-12-15T20:25:45.277Z,-1.09
2022-12-15T20:28:21.579Z,-1.08
2022-12-15T20:30:48.948Z,-1.08
2022-12-15T20:33:15.646Z,-1.07
2022-12-15T20:35:44.233Z,-1.06
2022-12-15T20:38:30.165Z,-1.05
2022-12-15T20:40:56.786Z,-1.05
2022-12-15T20:43:25.198Z,-1.04
2022-12-15T20:46:01.080Z,-1.03
2022-12-15T20:48:29.968Z,-1.02
2022-12-15T20:50:57.676Z,-1.01
2022-12-15T20:53:26.029Z,-0.99
2022-12-15T20:55:54.165Z,-0.98
2022-12-15T20:58:21.257Z,-0.97
2022-12-15T21:00:49.041Z,-0.97
2022-12-15T21:03:31.011Z,-0.98
2022-12-15T21:05:58.789Z,-0.99
2022-12-15T21:08:27.989Z,-1.00
2022-12-15T21:10:59.448Z,-1.01
2022-12-15T21:13:30.287Z,-1.04
2022-12-15T21:15:57.072Z,-1.06
2022-12-15T21:21:18.788Z,-1.15
2022-12-15T21:23:45.635Z,-1.21
2022-12-15T21:26:13.481Z,-1.27
2022-12-15T21:28:39.888Z,-1.32
2022-12-15T21:31:06.359Z,-1.34
2022-12-15T21:33:33.064Z,-1.34
2022-12-15T21:35:59.785Z,-1.34
2022-12-15T21:38:36.469Z,-1.33
2022-12-15T21:41:06.066Z,-1.29
2022-12-15T21:43:35.223Z,-1.24
2022-12-15T21:46:03.752Z,-1.19
2022-12-15T21:48:48.566Z,-1.15
2022-12-15T21:51:17.036Z,-1.11
2022-12-15T21:53:45.632Z,-1.09
2022-12-15T21:56:18.866Z,-1.03
2022-12-15T21:58:48.900Z,-1.00
2022-12-15T22:01:18.352Z,-0.97
2022-12-15T22:03:50.528Z,-0.95
2022-12-15T22:06:19.541Z,-0.91
2022-12-15T22:08:46.087Z,-0.91
2022-12-15T22:11:24.654Z,-0.89
2022-12-15T22:13:53.286Z,-0.87
2022-12-15T22:16:22.508Z,-0.85
2022-12-15T22:18:51.830Z,-0.85
2022-12-15T22:21:18.338Z,-0.82
2022-12-15T22:23:45.099Z,-0.82
2022-12-15T22:26:22.755Z,-0.80
2022-12-15T22:28:51.057Z,-0.81
2022-12-15T22:31:18.565Z,-0.82
2022-12-15T22:33:45.043Z,-0.82
2022-12-15T22:36:11.533Z,-0.82
2022-12-15T22:38:37.995Z,-0.82
2022-12-15T22:41:06.700Z,-0.82
2022-12-15T22:43:40.056Z,-0.83
2022-12-15T22:46:09.600Z,-0.86
2022-12-15T22:48:41.423Z,-0.89
2022-12-15T22:51:13.084Z,-0.93
2022-12-15T22:53:39.838Z,-0.97
2022-12-15T22:56:21.140Z,-1.02
2022-12-15T22:58:50.229Z,-1.06
2022-12-15T23:01:18.720Z,-1.05
2022-12-15T23:03:45.247Z,-1.07
2022-12-15T23:06:11.746Z,-1.06
2022-12-15T23:08:38.218Z,-1.13
2022-12-15T23:11:23.316Z,-1.18
2022-12-15T23:13:49.715Z,-1.25
2022-12-15T23:16:22.997Z,-1.29
2022-12-15T23:18:54.730Z,-1.32
2022-12-15T23:21:22.375Z,-1.36
2022-12-15T23:23:49.104Z,-1.40
2022-12-15T23:26:16.595Z,-1.44
2022-12-15T23:28:43.551Z,-1.47
2022-12-15T23:31:10.581Z,-1.52
2022-12-15T23:33:41.635Z,-1.54
2022-12-15T23:36:09.738Z,-1.58
2022-12-15T23:38:36.435Z,-1.61
2022-12-15T23:41:02.877Z,-1.67
2022-12-15T23:43:32.287Z,-1.71
2022-12-15T23:46:07.663Z,-1.71
2022-12-15T23:48:38.281Z,-1.71
2022-12-15T23:51:17.173Z,-1.71
2022-12-15T23:53:45.369Z,-1.75
2022-12-15T23:56:17.675Z,-1.77
2022-12-15T23:58:45.136Z,-1.77
